sensor_id;sensor_type;location;lat;lon;timestamp;P1;durP1;ratioP1;P2;durP2;ratioP2
23250;SDS011;11794;49.730;10.088;2023-06-19T00:02:14;9.43;;;5.80;;
23250;SDS011;11794;49.730;10.088;2023-06-19T00:04:40;10.05;;;5.93;;
23250;SDS011;11794;49.730;10.088;2023-06-19T00:07:05;9.73;;;6.03;;
23250;SDS011;11794;49.730;10.088;2023-06-19T00:09:31;9.90;;;5.70;;
23250;SDS011;11794;49.730;10.088;2023-06-19T00:11:57;13.05;;;5.80;;
23250;SDS011;11794;49.730;10.088;2023-06-19T00:14:24;10.35;;;6.38;;
23250;SDS011;11794;49.730;10.088;2023-06-19T00:16:50;10.70;;;6.30;;
23250;SDS011;11794;49.730;10.088;2023-06-19T00:19:16;9.93;;;5.78;;
23250;SDS011;11794;49.730;10.088;2023-06-19T00:21:42;10.88;;;6.22;;
23250;SDS011;11794;49.730;10.088;2023-06-19T00:24:09;11.20;;;6.10;;
23250;SDS011;11794;49.730;10.088;2023-06-19T00:26:35;10.83;;;6.10;;
23250;SDS011;11794;49.730;10.088;2023-06-19T00:29:01;10.87;;;6.20;;
23250;SDS011;11794;49.730;10.088;2023-06-19T00:31:26;9.75;;;6.13;;
23250;SDS011;11794;49.730;10.088;2023-06-19T00:33:52;11.10;;;6.10;;
23250;SDS011;11794;49.730;10.088;2023-06-19T00:36:18;10.67;;;6.10;;
23250;SDS011;11794;49.730;10.088;2023-06-19T00:38:50;11.48;;;6.10;;
23250;SDS011;11794;49.730;10.088;2023-06-19T00:41:16;10.23;;;5.95;;
23250;SDS011;11794;49.730;10.088;2023-06-19T00:43:42;10.57;;;6.00;;
23250;SDS011;11794;49.730;10.088;2023-06-19T00:46:07;9.18;;;6.13;;
23250;SDS011;11794;49.730;10.088;2023-06-19T00:48:33;10.77;;;6.18;;
23250;SDS011;11794;49.730;10.088;2023-06-19T00:50:59;11.03;;;6.50;;
23250;SDS011;11794;49.730;10.088;2023-06-19T00:53:25;10.63;;;6.03;;
23250;SDS011;11794;49.730;10.088;2023-06-19T00:55:52;9.23;;;6.10;;
23250;SDS011;11794;49.730;10.088;2023-06-19T00:58:21;10.57;;;6.35;;
23250;SDS011;11794;49.730;10.088;2023-06-19T01:00:47;12.45;;;6.68;;
23250;SDS011;11794;49.730;10.088;2023-06-19T01:03:13;10.68;;;6.38;;
23250;SDS011;11794;49.730;10.088;2023-06-19T01:05:40;11.73;;;6.82;;
23250;SDS011;11794;49.730;10.088;2023-06-19T01:08:21;12.27;;;6.60;;
23250;SDS011;11794;49.730;10.088;2023-06-19T01:11:00;10.05;;;6.43;;
23250;SDS011;11794;49.730;10.088;2023-06-19T01:16:29;13.85;;;6.53;;
23250;SDS011;11794;49.730;10.088;2023-06-19T01:18:55;12.50;;;6.05;;
23250;SDS011;11794;49.730;10.088;2023-06-19T01:21:21;11.02;;;6.57;;
23250;SDS011;11794;49.730;10.088;2023-06-19T01:23:47;11.80;;;6.57;;
23250;SDS011;11794;49.730;10.088;2023-06-19T01:26:13;10.15;;;6.18;;
23250;SDS011;11794;49.730;10.088;2023-06-19T01:28:40;10.90;;;6.67;;
23250;SDS011;11794;49.730;10.088;2023-06-19T01:31:10;11.63;;;6.70;;
23250;SDS011;11794;49.730;10.088;2023-06-19T01:33:38;10.18;;;6.43;;
23250;SDS011;11794;49.730;10.088;2023-06-19T01:36:05;12.00;;;6.97;;
23250;SDS011;11794;49.730;10.088;2023-06-19T01:38:32;12.75;;;6.60;;
23250;SDS011;11794;49.730;10.088;2023-06-19T01:40:59;11.45;;;6.63;;
23250;SDS011;11794;49.730;10.088;2023-06-19T01:43:27;13.35;;;7.85;;
23250;SDS011;11794;49.730;10.088;2023-06-19T01:45:55;11.93;;;7.35;;
23250;SDS011;11794;49.730;10.088;2023-06-19T01:48:21;13.37;;;6.80;;
23250;SDS011;11794;49.730;10.088;2023-06-19T01:50:47;11.02;;;6.70;;
23250;SDS011;11794;49.730;10.088;2023-06-19T01:53:13;10.80;;;6.55;;
23250;SDS011;11794;49.730;10.088;2023-06-19T01:55:39;12.10;;;6.57;;
23250;SDS011;11794;49.730;10.088;2023-06-19T01:58:05;11.40;;;6.83;;
23250;SDS011;11794;49.730;10.088;2023-06-19T02:00:32;10.10;;;6.15;;
23250;SDS011;11794;49.730;10.088;2023-06-19T02:03:00;10.82;;;6.28;;
23250;SDS011;11794;49.730;10.088;2023-06-19T02:05:26;13.23;;;6.20;;
23250;SDS011;11794;49.730;10.088;2023-06-19T02:07:51;11.27;;;6.47;;
23250;SDS011;11794;49.730;10.088;2023-06-19T02:10:17;11.15;;;6.78;;
23250;SDS011;11794;49.730;10.088;2023-06-19T02:12:42;10.80;;;6.53;;
23250;SDS011;11794;49.730;10.088;2023-06-19T02:15:08;11.57;;;6.23;;
23250;SDS011;11794;49.730;10.088;2023-06-19T02:17:34;12.02;;;7.05;;
23250;SDS011;11794;49.730;10.088;2023-06-19T02:20:00;10.35;;;6.22;;
23250;SDS011;11794;49.730;10.088;2023-06-19T02:22:25;13.03;;;6.70;;
23250;SDS011;11794;49.730;10.088;2023-06-19T02:24:51;11.95;;;6.97;;
23250;SDS011;11794;49.730;10.088;2023-06-19T02:27:16;13.50;;;6.73;;
23250;SDS011;11794;49.730;10.088;2023-06-19T02:29:42;11.40;;;6.30;;
23250;SDS011;11794;49.730;10.088;2023-06-19T02:32:07;11.07;;;6.32;;
23250;SDS011;11794;49.730;10.088;2023-06-19T02:34:33;10.70;;;5.80;;
23250;SDS011;11794;49.730;10.088;2023-06-19T02:36:59;9.80;;;6.10;;
23250;SDS011;11794;49.730;10.088;2023-06-19T02:39:24;11.00;;;6.17;;
23250;SDS011;11794;49.730;10.088;2023-06-19T02:41:50;9.57;;;5.97;;
23250;SDS011;11794;49.730;10.088;2023-06-19T02:44:15;10.00;;;5.93;;
23250;SDS011;11794;49.730;10.088;2023-06-19T02:46:41;10.57;;;6.13;;
23250;SDS011;11794;49.730;10.088;2023-06-19T02:49:06;11.15;;;6.50;;
23250;SDS011;11794;49.730;10.088;2023-06-19T02:51:32;11.13;;;6.33;;
23250;SDS011;11794;49.730;10.088;2023-06-19T02:53:57;10.20;;;5.73;;
23250;SDS011;11794;49.730;10.088;2023-06-19T02:56:23;11.13;;;5.82;;
23250;SDS011;11794;49.730;10.088;2023-06-19T02:58:50;10.05;;;5.80;;
23250;SDS011;11794;49.730;10.088;2023-06-19T03:01:15;11.07;;;6.10;;
23250;SDS011;11794;49.730;10.088;2023-06-19T03:03:41;11.63;;;6.33;;
23250;SDS011;11794;49.730;10.088;2023-06-19T03:06:07;10.50;;;6.15;;
23250;SDS011;11794;49.730;10.088;2023-06-19T03:08:33;12.25;;;5.97;;
23250;SDS011;11794;49.730;10.088;2023-06-19T03:10:59;10.60;;;5.70;;
23250;SDS011;11794;49.730;10.088;2023-06-19T03:13:25;10.37;;;5.43;;
23250;SDS011;11794;49.730;10.088;2023-06-19T03:15:50;10.65;;;5.63;;
23250;SDS011;11794;49.730;10.088;2023-06-19T03:18:16;9.50;;;5.30;;
23250;SDS011;11794;49.730;10.088;2023-06-19T03:20:41;10.80;;;5.07;;
23250;SDS011;11794;49.730;10.088;2023-06-19T03:23:07;11.07;;;5.28;;
23250;SDS011;11794;49.730;10.088;2023-06-19T03:25:32;11.03;;;5.20;;
23250;SDS011;11794;49.730;10.088;2023-06-19T03:28:00;10.95;;;5.50;;
23250;SDS011;11794;49.730;10.088;2023-06-19T03:30:27;10.57;;;5.40;;
23250;SDS011;11794;49.730;10.088;2023-06-19T03:32:53;9.90;;;5.80;;
23250;SDS011;11794;49.730;10.088;2023-06-19T03:35:18;10.48;;;5.65;;
23250;SDS011;11794;49.730;10.088;2023-06-19T03:37:44;14.50;;;6.00;;
23250;SDS011;11794;49.730;10.088;2023-06-19T03:40:09;10.40;;;5.50;;
23250;SDS011;11794;49.730;10.088;2023-06-19T03:42:38;11.65;;;5.78;;
23250;SDS011;11794;49.730;10.088;2023-06-19T03:45:06;10.45;;;5.72;;
23250;SDS011;11794;49.730;10.088;2023-06-19T03:47:32;10.25;;;5.40;;
23250;SDS011;11794;49.730;10.088;2023-06-19T03:49:58;10.67;;;5.93;;
23250;SDS011;11794;49.730;10.088;2023-06-19T03:52:23;10.77;;;5.50;;
23250;SDS011;11794;49.730;10.088;2023-06-19T03:54:49;11.43;;;5.40;;
23250;SDS011;11794;49.730;10.088;2023-06-19T03:57:14;10.77;;;5.60;;
23250;SDS011;11794;49.730;10.088;2023-06-19T03:59:40;9.68;;;5.57;;
23250;SDS011;11794;49.730;10.088;2023-06-19T04:02:06;9.20;;;5.33;;
23250;SDS011;11794;49.730;10.088;2023-06-19T04:04:31;10.77;;;5.45;;
23250;SDS011;11794;49.730;10.088;2023-06-19T04:06:57;9.63;;;5.23;;
23250;SDS011;11794;49.730;10.088;2023-06-19T04:09:24;9.73;;;5.50;;
23250;SDS011;11794;49.730;10.088;2023-06-19T04:11:49;12.88;;;5.32;;
23250;SDS011;11794;49.730;10.088;2023-06-19T04:14:15;10.10;;;5.23;;
23250;SDS011;11794;49.730;10.088;2023-06-19T04:16:40;10.52;;;5.20;;
23250;SDS011;11794;49.730;10.088;2023-06-19T04:19:06;14.77;;;5.70;;
23250;SDS011;11794;49.730;10.088;2023-06-19T04:21:31;9.67;;;5.47;;
23250;SDS011;11794;49.730;10.088;2023-06-19T04:23:57;9.73;;;5.50;;
23250;SDS011;11794;49.730;10.088;2023-06-19T04:26:22;11.57;;;5.00;;
23250;SDS011;11794;49.730;10.088;2023-06-19T04:28:49;10.40;;;5.00;;
23250;SDS011;11794;49.730;10.088;2023-06-19T04:31:15;10.17;;;4.97;;
23250;SDS011;11794;49.730;10.088;2023-06-19T04:33:43;9.40;;;4.90;;
23250;SDS011;11794;49.730;10.088;2023-06-19T04:36:09;9.15;;;5.22;;
23250;SDS011;11794;49.730;10.088;2023-06-19T04:38:34;9.48;;;5.18;;
23250;SDS011;11794;49.730;10.088;2023-06-19T04:41:00;10.80;;;5.50;;
23250;SDS011;11794;49.730;10.088;2023-06-19T04:43:25;9.85;;;5.18;;
23250;SDS011;11794;49.730;10.088;2023-06-19T04:45:51;10.63;;;5.00;;
23250;SDS011;11794;49.730;10.088;2023-06-19T04:48:16;10.73;;;5.67;;
23250;SDS011;11794;49.730;10.088;2023-06-19T04:50:42;10.82;;;5.15;;
23250;SDS011;11794;49.730;10.088;2023-06-19T04:53:08;9.63;;;4.90;;
23250;SDS011;11794;49.730;10.088;2023-06-19T04:55:33;10.43;;;5.22;;
23250;SDS011;11794;49.730;10.088;2023-06-19T04:57:59;9.80;;;4.60;;
23250;SDS011;11794;49.730;10.088;2023-06-19T05:00:24;11.77;;;5.30;;
23250;SDS011;11794;49.730;10.088;2023-06-19T05:02:50;9.35;;;5.10;;
23250;SDS011;11794;49.730;10.088;2023-06-19T05:05:16;11.43;;;5.60;;
23250;SDS011;11794;49.730;10.088;2023-06-19T05:07:41;9.43;;;4.80;;
23250;SDS011;11794;49.730;10.088;2023-06-19T05:10:07;10.32;;;5.40;;
23250;SDS011;11794;49.730;10.088;2023-06-19T05:12:34;10.43;;;5.05;;
23250;SDS011;11794;49.730;10.088;2023-06-19T05:15:00;10.00;;;5.37;;
23250;SDS011;11794;49.730;10.088;2023-06-19T05:17:26;10.10;;;5.27;;
23250;SDS011;11794;49.730;10.088;2023-06-19T05:19:51;11.40;;;4.82;;
23250;SDS011;11794;49.730;10.088;2023-06-19T05:22:17;10.17;;;5.30;;
23250;SDS011;11794;49.730;10.088;2023-06-19T05:24:43;9.93;;;5.35;;
23250;SDS011;11794;49.730;10.088;2023-06-19T05:27:09;11.60;;;5.60;;
23250;SDS011;11794;49.730;10.088;2023-06-19T05:29:35;13.70;;;5.17;;
23250;SDS011;11794;49.730;10.088;2023-06-19T05:32:00;11.32;;;5.50;;
23250;SDS011;11794;49.730;10.088;2023-06-19T05:34:26;8.23;;;4.50;;
23250;SDS011;11794;49.730;10.088;2023-06-19T05:36:52;9.15;;;5.20;;
23250;SDS011;11794;49.730;10.088;2023-06-19T05:39:17;8.90;;;5.00;;
23250;SDS011;11794;49.730;10.088;2023-06-19T05:41:43;10.55;;;4.50;;
23250;SDS011;11794;49.730;10.088;2023-06-19T05:44:10;8.77;;;4.95;;
23250;SDS011;11794;49.730;10.088;2023-06-19T05:46:40;9.23;;;4.70;;
23250;SDS011;11794;49.730;10.088;2023-06-19T05:49:06;11.20;;;5.45;;
23250;SDS011;11794;49.730;10.088;2023-06-19T05:51:32;10.03;;;5.13;;
23250;SDS011;11794;49.730;10.088;2023-06-19T05:53:57;12.00;;;5.57;;
23250;SDS011;11794;49.730;10.088;2023-06-19T05:56:28;10.15;;;5.18;;
23250;SDS011;11794;49.730;10.088;2023-06-19T05:58:54;9.25;;;4.32;;
23250;SDS011;11794;49.730;10.088;2023-06-19T06:01:20;9.57;;;4.67;;
23250;SDS011;11794;49.730;10.088;2023-06-19T06:03:45;9.52;;;4.63;;
23250;SDS011;11794;49.730;10.088;2023-06-19T06:06:10;7.80;;;4.47;;
23250;SDS011;11794;49.730;10.088;2023-06-19T06:08:36;10.40;;;4.40;;
23250;SDS011;11794;49.730;10.088;2023-06-19T06:11:01;8.00;;;4.55;;
23250;SDS011;11794;49.730;10.088;2023-06-19T06:13:27;8.30;;;4.50;;
23250;SDS011;11794;49.730;10.088;2023-06-19T06:15:52;8.00;;;4.13;;
23250;SDS011;11794;49.730;10.088;2023-06-19T06:18:18;8.13;;;3.85;;
23250;SDS011;11794;49.730;10.088;2023-06-19T06:20:44;9.23;;;4.10;;
23250;SDS011;11794;49.730;10.088;2023-06-19T06:23:09;10.70;;;4.20;;
23250;SDS011;11794;49.730;10.088;2023-06-19T06:25:35;7.57;;;4.10;;
23250;SDS011;11794;49.730;10.088;2023-06-19T06:28:00;7.28;;;3.58;;
23250;SDS011;11794;49.730;10.088;2023-06-19T06:30:26;7.73;;;3.63;;
23250;SDS011;11794;49.730;10.088;2023-06-19T06:32:52;8.93;;;3.72;;
23250;SDS011;11794;49.730;10.088;2023-06-19T06:35:18;7.40;;;3.20;;
23250;SDS011;11794;49.730;10.088;2023-06-19T06:37:44;8.38;;;3.20;;
23250;SDS011;11794;49.730;10.088;2023-06-19T06:40:11;7.63;;;3.07;;
23250;SDS011;11794;49.730;10.088;2023-06-19T06:42:37;6.90;;;3.03;;
23250;SDS011;11794;49.730;10.088;2023-06-19T06:45:04;6.25;;;2.83;;
23250;SDS011;11794;49.730;10.088;2023-06-19T06:47:30;7.30;;;3.20;;
23250;SDS011;11794;49.730;10.088;2023-06-19T06:49:56;6.67;;;2.97;;
23250;SDS011;11794;49.730;10.088;2023-06-19T06:52:21;6.78;;;3.20;;
23250;SDS011;11794;49.730;10.088;2023-06-19T06:54:47;6.40;;;2.57;;
23250;SDS011;11794;49.730;10.088;2023-06-19T06:57:12;6.67;;;2.80;;
23250;SDS011;11794;49.730;10.088;2023-06-19T06:59:38;8.88;;;2.95;;
23250;SDS011;11794;49.730;10.088;2023-06-19T07:02:03;7.77;;;2.80;;
23250;SDS011;11794;49.730;10.088;2023-06-19T07:04:29;7.03;;;2.60;;
23250;SDS011;11794;49.730;10.088;2023-06-19T07:06:54;6.93;;;2.50;;
23250;SDS011;11794;49.730;10.088;2023-06-19T07:09:20;7.90;;;2.63;;
23250;SDS011;11794;49.730;10.088;2023-06-19T07:11:48;6.57;;;2.33;;
23250;SDS011;11794;49.730;10.088;2023-06-19T07:14:14;5.60;;;2.45;;
23250;SDS011;11794;49.730;10.088;2023-06-19T07:16:42;7.40;;;2.70;;
23250;SDS011;11794;49.730;10.088;2023-06-19T07:19:09;7.73;;;2.40;;
23250;SDS011;11794;49.730;10.088;2023-06-19T07:21:35;5.63;;;2.40;;
23250;SDS011;11794;49.730;10.088;2023-06-19T07:24:01;6.97;;;2.50;;
23250;SDS011;11794;49.730;10.088;2023-06-19T07:26:26;8.98;;;2.40;;
23250;SDS011;11794;49.730;10.088;2023-06-19T07:28:52;12.02;;;2.95;;
23250;SDS011;11794;49.730;10.088;2023-06-19T07:31:18;6.00;;;2.50;;
23250;SDS011;11794;49.730;10.088;2023-06-19T07:33:43;6.03;;;2.30;;
23250;SDS011;11794;49.730;10.088;2023-06-19T07:36:09;11.90;;;2.28;;
23250;SDS011;11794;49.730;10.088;2023-06-19T07:38:38;6.10;;;2.50;;
23250;SDS011;11794;49.730;10.088;2023-06-19T07:41:05;5.53;;;2.45;;
23250;SDS011;11794;49.730;10.088;2023-06-19T07:43:32;6.60;;;2.63;;
23250;SDS011;11794;49.730;10.088;2023-06-19T07:45:57;6.93;;;2.47;;
23250;SDS011;11794;49.730;10.088;2023-06-19T07:48:24;6.38;;;2.70;;
23250;SDS011;11794;49.730;10.088;2023-06-19T07:50:49;6.23;;;2.10;;
23250;SDS011;11794;49.730;10.088;2023-06-19T07:53:15;8.95;;;2.55;;
23250;SDS011;11794;49.730;10.088;2023-06-19T07:55:41;7.77;;;2.47;;
23250;SDS011;11794;49.730;10.088;2023-06-19T07:58:06;8.85;;;2.42;;
23250;SDS011;11794;49.730;10.088;2023-06-19T08:00:32;5.78;;;2.17;;
23250;SDS011;11794;49.730;10.088;2023-06-19T08:02:58;6.00;;;2.27;;
23250;SDS011;11794;49.730;10.088;2023-06-19T08:05:23;6.17;;;2.20;;
23250;SDS011;11794;49.730;10.088;2023-06-19T08:07:49;6.25;;;1.95;;
23250;SDS011;11794;49.730;10.088;2023-06-19T08:10:14;5.87;;;2.10;;
23250;SDS011;11794;49.730;10.088;2023-06-19T08:12:40;9.52;;;2.17;;
23250;SDS011;11794;49.730;10.088;2023-06-19T08:15:07;6.50;;;2.30;;
23250;SDS011;11794;49.730;10.088;2023-06-19T08:17:33;5.72;;;2.10;;
23250;SDS011;11794;49.730;10.088;2023-06-19T08:19:59;4.97;;;1.80;;
23250;SDS011;11794;49.730;10.088;2023-06-19T08:22:25;5.65;;;2.00;;
23250;SDS011;11794;49.730;10.088;2023-06-19T08:24:50;5.80;;;2.10;;
23250;SDS011;11794;49.730;10.088;2023-06-19T08:27:16;6.23;;;2.10;;
23250;SDS011;11794;49.730;10.088;2023-06-19T08:29:41;6.30;;;2.47;;
23250;SDS011;11794;49.730;10.088;2023-06-19T08:32:08;7.75;;;2.22;;
23250;SDS011;11794;49.730;10.088;2023-06-19T08:34:34;6.70;;;2.58;;
23250;SDS011;11794;49.730;10.088;2023-06-19T08:37:00;6.57;;;2.15;;
23250;SDS011;11794;49.730;10.088;2023-06-19T08:39:25;6.50;;;2.47;;
23250;SDS011;11794;49.730;10.088;2023-06-19T08:41:51;5.53;;;2.43;;
23250;SDS011;11794;49.730;10.088;2023-06-19T08:44:18;6.35;;;2.42;;
23250;SDS011;11794;49.730;10.088;2023-06-19T08:46:44;6.00;;;2.40;;
23250;SDS011;11794;49.730;10.088;2023-06-19T08:49:09;6.45;;;2.70;;
23250;SDS011;11794;49.730;10.088;2023-06-19T08:51:36;6.07;;;2.38;;
23250;SDS011;11794;49.730;10.088;2023-06-19T08:54:03;6.40;;;2.40;;
23250;SDS011;11794;49.730;10.088;2023-06-19T08:56:30;5.77;;;2.60;;
23250;SDS011;11794;49.730;10.088;2023-06-19T08:59:15;6.13;;;2.75;;
23250;SDS011;11794;49.730;10.088;2023-06-19T09:01:51;5.40;;;2.50;;
23250;SDS011;11794;49.730;10.088;2023-06-19T09:04:22;6.43;;;2.50;;
23250;SDS011;11794;49.730;10.088;2023-06-19T09:06:58;6.43;;;2.63;;
23250;SDS011;11794;49.730;10.088;2023-06-19T09:09:25;6.82;;;2.95;;
23250;SDS011;11794;49.730;10.088;2023-06-19T09:12:04;6.38;;;2.92;;
23250;SDS011;11794;49.730;10.088;2023-06-19T09:14:32;6.30;;;2.72;;
23250;SDS011;11794;49.730;10.088;2023-06-19T09:16:59;7.03;;;2.78;;
23250;SDS011;11794;49.730;10.088;2023-06-19T09:19:25;7.57;;;3.30;;
23250;SDS011;11794;49.730;10.088;2023-06-19T09:21:51;6.93;;;3.00;;
23250;SDS011;11794;49.730;10.088;2023-06-19T09:24:16;7.13;;;3.30;;
23250;SDS011;11794;49.730;10.088;2023-06-19T09:26:42;8.00;;;3.80;;
23250;SDS011;11794;49.730;10.088;2023-06-19T09:29:12;7.47;;;3.42;;
23250;SDS011;11794;49.730;10.088;2023-06-19T09:31:40;7.10;;;3.03;;
23250;SDS011;11794;49.730;10.088;2023-06-19T09:34:06;6.43;;;2.90;;
23250;SDS011;11794;49.730;10.088;2023-06-19T09:36:32;8.55;;;3.25;;
23250;SDS011;11794;49.730;10.088;2023-06-19T09:38:59;6.78;;;3.28;;
23250;SDS011;11794;49.730;10.088;2023-06-19T09:41:26;6.88;;;2.95;;
23250;SDS011;11794;49.730;10.088;2023-06-19T09:43:54;8.65;;;3.70;;
23250;SDS011;11794;49.730;10.088;2023-06-19T09:46:25;7.40;;;3.40;;
23250;SDS011;11794;49.730;10.088;2023-06-19T09:48:54;7.20;;;3.60;;
23250;SDS011;11794;49.730;10.088;2023-06-19T09:51:27;7.53;;;3.63;;
23250;SDS011;11794;49.730;10.088;2023-06-19T09:53:58;7.07;;;3.33;;
23250;SDS011;11794;49.730;10.088;2023-06-19T09:56:25;7.95;;;4.10;;
23250;SDS011;11794;49.730;10.088;2023-06-19T09:58:53;7.47;;;4.07;;
23250;SDS011;11794;49.730;10.088;2023-06-19T10:01:22;8.40;;;3.92;;
23250;SDS011;11794;49.730;10.088;2023-06-19T10:03:48;7.75;;;4.30;;
23250;SDS011;11794;49.730;10.088;2023-06-19T10:06:17;7.57;;;4.10;;
23250;SDS011;11794;49.730;10.088;2023-06-19T10:08:44;8.20;;;4.47;;
23250;SDS011;11794;49.730;10.088;2023-06-19T10:11:10;7.30;;;4.20;;
23250;SDS011;11794;49.730;10.088;2023-06-19T10:13:37;9.48;;;4.85;;
23250;SDS011;11794;49.730;10.088;2023-06-19T10:16:05;8.13;;;4.68;;
23250;SDS011;11794;49.730;10.088;2023-06-19T10:18:45;7.20;;;3.80;;
23250;SDS011;11794;49.730;10.088;2023-06-19T10:21:21;7.13;;;4.30;;
23250;SDS011;11794;49.730;10.088;2023-06-19T10:23:57;7.53;;;3.80;;
23250;SDS011;11794;49.730;10.088;2023-06-19T10:26:33;7.05;;;4.03;;
23250;SDS011;11794;49.730;10.088;2023-06-19T10:28:59;7.90;;;4.70;;
23250;SDS011;11794;49.730;10.088;2023-06-19T10:31:25;7.65;;;3.80;;
23250;SDS011;11794;49.730;10.088;2023-06-19T10:33:53;7.00;;;3.50;;
23250;SDS011;11794;49.730;10.088;2023-06-19T10:36:20;9.50;;;4.63;;
23250;SDS011;11794;49.730;10.088;2023-06-19T10:38:48;6.35;;;3.95;;
23250;SDS011;11794;49.730;10.088;2023-06-19T10:41:15;10.98;;;4.85;;
23250;SDS011;11794;49.730;10.088;2023-06-19T10:46:22;7.30;;;4.22;;
23250;SDS011;11794;49.730;10.088;2023-06-19T10:48:49;7.55;;;4.78;;
23250;SDS011;11794;49.730;10.088;2023-06-19T10:51:19;7.80;;;5.00;;
23250;SDS011;11794;49.730;10.088;2023-06-19T10:53:45;7.70;;;4.97;;
23250;SDS011;11794;49.730;10.088;2023-06-19T10:56:10;7.47;;;4.50;;
23250;SDS011;11794;49.730;10.088;2023-06-19T10:58:36;7.53;;;4.38;;
23250;SDS011;11794;49.730;10.088;2023-06-19T11:01:01;7.17;;;4.40;;
23250;SDS011;11794;49.730;10.088;2023-06-19T11:03:28;8.82;;;4.30;;
23250;SDS011;11794;49.730;10.088;2023-06-19T11:05:54;9.93;;;5.00;;
23250;SDS011;11794;49.730;10.088;2023-06-19T11:08:20;7.77;;;5.23;;
23250;SDS011;11794;49.730;10.088;2023-06-19T11:10:47;7.95;;;5.00;;
23250;SDS011;11794;49.730;10.088;2023-06-19T11:13:17;7.38;;;5.20;;
23250;SDS011;11794;49.730;10.088;2023-06-19T11:15:44;8.15;;;5.35;;
23250;SDS011;11794;49.730;10.088;2023-06-19T11:18:10;8.35;;;5.03;;
23250;SDS011;11794;49.730;10.088;2023-06-19T11:20:46;7.93;;;5.30;;
23250;SDS011;11794;49.730;10.088;2023-06-19T11:23:16;9.07;;;4.53;;
23250;SDS011;11794;49.730;10.088;2023-06-19T11:25:42;7.13;;;5.07;;
23250;SDS011;11794;49.730;10.088;2023-06-19T11:28:12;7.85;;;5.03;;
23250;SDS011;11794;49.730;10.088;2023-06-19T11:30:47;8.75;;;5.50;;
23250;SDS011;11794;49.730;10.088;2023-06-19T11:33:17;8.15;;;4.90;;
23250;SDS011;11794;49.730;10.088;2023-06-19T11:35:47;7.50;;;5.05;;
23250;SDS011;11794;49.730;10.088;2023-06-19T11:38:17;8.00;;;4.70;;
23250;SDS011;11794;49.730;10.088;2023-06-19T11:40:47;8.73;;;5.05;;
23250;SDS011;11794;49.730;10.088;2023-06-19T11:43:23;9.18;;;5.18;;
23250;SDS011;11794;49.730;10.088;2023-06-19T11:46:02;9.37;;;4.67;;
23250;SDS011;11794;49.730;10.088;2023-06-19T11:48:28;8.67;;;4.90;;
23250;SDS011;11794;49.730;10.088;2023-06-19T11:50:53;11.40;;;4.85;;
23250;SDS011;11794;49.730;10.088;2023-06-19T11:53:19;8.43;;;4.70;;
23250;SDS011;11794;49.730;10.088;2023-06-19T11:55:46;6.63;;;4.70;;
23250;SDS011;11794;49.730;10.088;2023-06-19T11:58:12;7.10;;;4.65;;
23250;SDS011;11794;49.730;10.088;2023-06-19T12:00:37;9.57;;;4.73;;
23250;SDS011;11794;49.730;10.088;2023-06-19T12:03:03;8.63;;;4.82;;
23250;SDS011;11794;49.730;10.088;2023-06-19T12:05:29;8.23;;;5.40;;
23250;SDS011;11794;49.730;10.088;2023-06-19T12:07:55;8.07;;;5.67;;
23250;SDS011;11794;49.730;10.088;2023-06-19T12:10:21;9.18;;;5.22;;
23250;SDS011;11794;49.730;10.088;2023-06-19T12:12:47;7.47;;;5.03;;
23250;SDS011;11794;49.730;10.088;2023-06-19T12:15:12;9.07;;;4.67;;
23250;SDS011;11794;49.730;10.088;2023-06-19T12:17:38;8.50;;;5.00;;
23250;SDS011;11794;49.730;10.088;2023-06-19T12:20:03;9.43;;;5.88;;
23250;SDS011;11794;49.730;10.088;2023-06-19T12:22:34;8.52;;;5.78;;
23250;SDS011;11794;49.730;10.088;2023-06-19T12:24:59;8.10;;;4.80;;
23250;SDS011;11794;49.730;10.088;2023-06-19T12:27:25;7.47;;;4.33;;
23250;SDS011;11794;49.730;10.088;2023-06-19T12:29:51;6.53;;;4.27;;
23250;SDS011;11794;49.730;10.088;2023-06-19T12:32:16;6.97;;;4.70;;
23250;SDS011;11794;49.730;10.088;2023-06-19T12:34:42;8.38;;;5.03;;
23250;SDS011;11794;49.730;10.088;2023-06-19T12:37:11;6.72;;;4.95;;
23250;SDS011;11794;49.730;10.088;2023-06-19T12:39:40;7.03;;;4.63;;
23250;SDS011;11794;49.730;10.088;2023-06-19T12:42:06;7.37;;;4.70;;
23250;SDS011;11794;49.730;10.088;2023-06-19T12:44:32;8.98;;;5.45;;
23250;SDS011;11794;49.730;10.088;2023-06-19T12:46:57;7.73;;;5.30;;
23250;SDS011;11794;49.730;10.088;2023-06-19T12:49:25;8.70;;;4.88;;
23250;SDS011;11794;49.730;10.088;2023-06-19T12:51:51;8.90;;;4.70;;
23250;SDS011;11794;49.730;10.088;2023-06-19T12:54:17;6.47;;;3.90;;
23250;SDS011;11794;49.730;10.088;2023-06-19T12:56:43;6.80;;;4.55;;
23250;SDS011;11794;49.730;10.088;2023-06-19T12:59:09;7.87;;;4.40;;
23250;SDS011;11794;49.730;10.088;2023-06-19T13:01:35;6.97;;;4.90;;
23250;SDS011;11794;49.730;10.088;2023-06-19T13:04:00;7.47;;;4.97;;
23250;SDS011;11794;49.730;10.088;2023-06-19T13:06:26;7.50;;;4.87;;
23250;SDS011;11794;49.730;10.088;2023-06-19T13:08:51;7.13;;;4.50;;
23250;SDS011;11794;49.730;10.088;2023-06-19T13:11:17;9.03;;;4.30;;
23250;SDS011;11794;49.730;10.088;2023-06-19T13:13:42;7.20;;;4.77;;
23250;SDS011;11794;49.730;10.088;2023-06-19T13:16:08;7.85;;;5.00;;
23250;SDS011;11794;49.730;10.088;2023-06-19T13:18:34;6.97;;;4.55;;
23250;SDS011;11794;49.730;10.088;2023-06-19T13:21:00;7.30;;;4.43;;
23250;SDS011;11794;49.730;10.088;2023-06-19T13:23:26;6.72;;;4.07;;
23250;SDS011;11794;49.730;10.088;2023-06-19T13:25:51;7.70;;;4.80;;
23250;SDS011;11794;49.730;10.088;2023-06-19T13:28:17;6.32;;;4.50;;
23250;SDS011;11794;49.730;10.088;2023-06-19T13:30:42;6.97;;;4.10;;
23250;SDS011;11794;49.730;10.088;2023-06-19T13:33:08;7.43;;;4.47;;
23250;SDS011;11794;49.730;10.088;2023-06-19T13:35:34;7.13;;;4.00;;
23250;SDS011;11794;49.730;10.088;2023-06-19T13:38:00;8.00;;;4.80;;
23250;SDS011;11794;49.730;10.088;2023-06-19T13:40:25;7.28;;;4.90;;
23250;SDS011;11794;49.730;10.088;2023-06-19T13:42:51;8.23;;;4.43;;
23250;SDS011;11794;49.730;10.088;2023-06-19T13:45:17;9.23;;;4.88;;
23250;SDS011;11794;49.730;10.088;2023-06-19T13:47:42;8.30;;;5.20;;
23250;SDS011;11794;49.730;10.088;2023-06-19T13:50:08;7.32;;;4.53;;
23250;SDS011;11794;49.730;10.088;2023-06-19T13:52:34;5.80;;;3.43;;
23250;SDS011;11794;49.730;10.088;2023-06-19T13:55:01;7.00;;;3.97;;
23250;SDS011;11794;49.730;10.088;2023-06-19T13:57:27;6.82;;;3.90;;
23250;SDS011;11794;49.730;10.088;2023-06-19T13:59:53;7.68;;;4.60;;
23250;SDS011;11794;49.730;10.088;2023-06-19T14:02:18;6.67;;;4.10;;
23250;SDS011;11794;49.730;10.088;2023-06-19T14:04:44;7.57;;;4.03;;
23250;SDS011;11794;49.730;10.088;2023-06-19T14:07:09;6.90;;;4.05;;
23250;SDS011;11794;49.730;10.088;2023-06-19T14:09:35;6.93;;;4.27;;
23250;SDS011;11794;49.730;10.088;2023-06-19T14:12:00;7.00;;;4.10;;
23250;SDS011;11794;49.730;10.088;2023-06-19T14:14:26;7.97;;;4.47;;
23250;SDS011;11794;49.730;10.088;2023-06-19T14:16:51;7.70;;;3.90;;
23250;SDS011;11794;49.730;10.088;2023-06-19T14:19:17;8.07;;;3.88;;
23250;SDS011;11794;49.730;10.088;2023-06-19T14:21:42;6.67;;;3.90;;
23250;SDS011;11794;49.730;10.088;2023-06-19T14:24:08;8.50;;;4.20;;
23250;SDS011;11794;49.730;10.088;2023-06-19T14:26:33;7.30;;;4.38;;
23250;SDS011;11794;49.730;10.088;2023-06-19T14:28:59;7.10;;;4.37;;
23250;SDS011;11794;49.730;10.088;2023-06-19T14:31:25;7.43;;;4.17;;
23250;SDS011;11794;49.730;10.088;2023-06-19T14:33:50;6.03;;;3.75;;